createdAt,value
2017-10-17T00:00:35.815Z,0
2017-10-17T00:01:36.445Z,0
2017-10-17T00:02:37.055Z,0
2017-10-17T00:03:37.662Z,0
2017-10-17T00:04:38.270Z,0
2017-10-17T00:05:38.876Z,0
2017-10-17T00:06:39.470Z,0
2017-10-17T00:07:40.079Z,0
2017-10-17T00:08:40.681Z,0
2017-10-17T00:09:41.289Z,0
2017-10-17T00:10:41.901Z,0
2017-10-17T00:11:42.501Z,0
2017-10-17T00:12:43.112Z,0
2017-10-17T00:13:43.719Z,0
2017-10-17T00:14:44.324Z,0
2017-10-17T00:15:44.950Z,0
2017-10-17T00:16:45.543Z,0
2017-10-17T00:17:46.153Z,0
2017-10-17T00:18:46.747Z,0
2017-10-17T00:19:47.351Z,0
2017-10-17T00:20:47.956Z,0
2017-10-17T00:21:48.572Z,0
2017-10-17T00:22:49.164Z,0
2017-10-17T00:23:49.764Z,0
2017-10-17T00:24:50.372Z,0
2017-10-17T00:25:50.971Z,0
2017-10-17T00:26:51.579Z,0
2017-10-17T00:27:52.192Z,0
2017-10-17T00:28:52.802Z,0
2017-10-17T00:29:53.410Z,0
2017-10-17T00:30:54.012Z,0
2017-10-17T00:31:54.608Z,0
2017-10-17T00:32:55.209Z,0
2017-10-17T00:33:55.817Z,0
2017-10-17T00:34:56.424Z,0
2017-10-17T00:35:57.025Z,0
2017-10-17T00:36:57.655Z,0
2017-10-17T00:37:58.241Z,0
2017-10-17T00:38:58.842Z,0
2017-10-17T00:39:59.449Z,0
2017-10-17T00:41:00.062Z,0
2017-10-17T00:42:00.666Z,0
2017-10-17T00:43:01.285Z,0
2017-10-17T00:44:01.893Z,0
2017-10-17T00:45:02.496Z,0
2017-10-17T00:46:03.106Z,0
2017-10-17T00:47:03.705Z,0
2017-10-17T00:48:04.304Z,0
2017-10-17T00:49:04.917Z,0
2017-10-17T00:50:05.537Z,0
2017-10-17T00:51:06.132Z,0
2017-10-17T00:52:06.738Z,0
2017-10-17T00:53:07.371Z,0
2017-10-17T00:54:07.956Z,0
2017-10-17T00:55:08.570Z,0
2017-10-17T00:56:09.171Z,0
2017-10-17T00:57:09.796Z,0
2017-10-17T00:58:10.389Z,0
2017-10-17T00:59:10.998Z,0
2017-10-17T01:00:11.604Z,0
2017-10-17T01:01:12.205Z,0
2017-10-17T01:02:12.803Z,0
2017-10-17T01:03:13.414Z,0
2017-10-17T01:04:14.029Z,0
2017-10-17T01:05:14.635Z,0
2017-10-17T01:06:15.245Z,0
2017-10-17T01:07:15.845Z,0
2017-10-17T01:08:16.454Z,0
2017-10-17T01:09:17.058Z,0
2017-10-17T01:10:17.658Z,0
2017-10-17T01:11:18.264Z,0
2017-10-17T01:12:18.864Z,0
2017-10-17T01:13:19.473Z,0
2017-10-17T01:14:20.081Z,0
2017-10-17T01:15:20.691Z,0
2017-10-17T01:16:21.300Z,0
2017-10-17T01:17:21.897Z,0
2017-10-17T01:18:22.511Z,0
2017-10-17T01:19:23.122Z,0
2017-10-17T01:20:23.728Z,0
2017-10-17T01:21:24.333Z,0
2017-10-17T01:22:24.933Z,0
2017-10-17T01:23:25.545Z,0
2017-10-17T01:24:26.149Z,0
2017-10-17T01:25:26.742Z,0
2017-10-17T01:26:27.350Z,0
2017-10-17T01:27:27.962Z,0
2017-10-17T01:28:28.571Z,0
2017-10-17T01:29:29.177Z,0
2017-10-17T01:30:29.789Z,0
2017-10-17T01:31:30.388Z,0
2017-10-17T01:32:31.005Z,0
2017-10-17T01:33:31.621Z,0
2017-10-17T01:34:32.228Z,0
2017-10-17T01:35:32.837Z,0
2017-10-17T01:36:33.448Z,0
2017-10-17T01:37:34.057Z,0
2017-10-17T01:38:34.656Z,0
2017-10-17T01:39:35.265Z,0
2017-10-17T01:40:35.873Z,0
2017-10-17T01:41:36.483Z,0
2017-10-17T01:42:37.078Z,0
2017-10-17T01:43:37.679Z,0
2017-10-17T01:44:38.286Z,0
2017-10-17T01:45:38.894Z,0
2017-10-17T01:46:39.503Z,0
2017-10-17T01:47:40.111Z,0
2017-10-17T01:48:40.710Z,0
2017-10-17T01:49:41.318Z,0
2017-10-17T01:50:41.935Z,0
2017-10-17T01:51:42.532Z,0
2017-10-17T01:52:43.141Z,0
2017-10-17T01:53:43.740Z,0
2017-10-17T01:54:44.349Z,0
2017-10-17T01:55:44.958Z,0
2017-10-17T01:56:45.557Z,0
2017-10-17T01:57:46.169Z,0
2017-10-17T01:58:46.777Z,0
2017-10-17T01:59:47.387Z,0
2017-10-17T02:00:48.000Z,0
2017-10-17T02:01:48.613Z,0
2017-10-17T02:02:49.204Z,0
2017-10-17T02:03:49.816Z,0
2017-10-17T02:04:50.425Z,0
2017-10-17T02:05:51.035Z,0
2017-10-17T02:06:51.640Z,0
2017-10-17T02:07:52.244Z,0
2017-10-17T02:08:52.849Z,0
2017-10-17T02:09:53.446Z,0
2017-10-17T02:10:54.047Z,0
2017-10-17T02:11:54.658Z,0
2017-10-17T02:12:55.265Z,0
2017-10-17T02:13:55.863Z,0
2017-10-17T02:14:56.469Z,0
2017-10-17T02:15:57.061Z,0
2017-10-17T02:16:57.669Z,0
2017-10-17T02:17:58.274Z,0
2017-10-17T02:18:58.879Z,0
2017-10-17T02:19:59.488Z,0
2017-10-17T02:21:00.086Z,0
2017-10-17T02:22:00.696Z,0
2017-10-17T02:23:01.303Z,0
2017-10-17T02:24:01.906Z,0
2017-10-17T02:25:02.514Z,0
2017-10-17T02:26:03.113Z,0
2017-10-17T02:27:03.710Z,0
2017-10-17T02:28:04.310Z,0
2017-10-17T02:29:04.922Z,0
2017-10-17T02:30:05.533Z,0
2017-10-17T02:31:06.130Z,0
2017-10-17T02:32:06.735Z,0
2017-10-17T02:33:07.350Z,0
2017-10-17T02:34:07.958Z,0
2017-10-17T02:35:08.566Z,0
2017-10-17T02:36:09.179Z,0
2017-10-17T02:37:09.778Z,0
2017-10-17T02:38:10.378Z,0
2017-10-17T02:39:10.986Z,0
2017-10-17T02:40:11.593Z,0
2017-10-17T02:41:12.210Z,0
2017-10-17T02:42:12.815Z,0
2017-10-17T02:43:13.412Z,0
2017-10-17T02:44:14.024Z,0
2017-10-17T02:45:14.630Z,0
2017-10-17T02:46:15.236Z,0
2017-10-17T02:47:15.825Z,0
2017-10-17T02:48:16.426Z,0
2017-10-17T02:49:17.028Z,0
2017-10-17T02:50:17.633Z,0
2017-10-17T02:51:18.238Z,0
2017-10-17T02:52:18.849Z,0
2017-10-17T02:53:19.448Z,0
2017-10-17T02:54:20.063Z,0
2017-10-17T02:55:20.658Z,0
2017-10-17T02:56:21.268Z,0
2017-10-17T02:57:21.883Z,0
2017-10-17T02:58:22.487Z,0
2017-10-17T02:59:23.084Z,0
2017-10-17T03:00:23.693Z,0
2017-10-17T03:01:24.302Z,0
2017-10-17T03:02:24.898Z,0
2017-10-17T03:03:25.509Z,0
2017-10-17T03:04:26.119Z,0
2017-10-17T03:05:26.724Z,0
2017-10-17T03:06:27.329Z,0
2017-10-17T03:07:27.933Z,0
2017-10-17T03:08:28.544Z,0
2017-10-17T03:09:29.139Z,0
2017-10-17T03:10:29.749Z,0
2017-10-17T03:11:30.363Z,0
2017-10-17T03:12:30.963Z,0
2017-10-17T03:13:31.572Z,0
2017-10-17T03:14:32.182Z,0
2017-10-17T03:15:32.792Z,0
2017-10-17T03:16:33.403Z,0
2017-10-17T03:17:34.002Z,0
2017-10-17T03:18:34.610Z,0
2017-10-17T03:19:35.226Z,0
2017-10-17T03:20:35.826Z,0
2017-10-17T03:21:36.435Z,0
2017-10-17T03:22:37.046Z,0
2017-10-17T03:23:37.657Z,0
2017-10-17T03:24:38.263Z,0
2017-10-17T03:25:38.870Z,0
2017-10-17T03:26:39.470Z,0
2017-10-17T03:27:40.079Z,0
2017-10-17T03:28:40.689Z,0
2017-10-17T03:29:41.297Z,0
2017-10-17T03:30:41.898Z,0
2017-10-17T03:31:42.502Z,0
2017-10-17T03:32:43.108Z,0
2017-10-17T03:33:43.718Z,0
2017-10-17T03:34:44.326Z,0
2017-10-17T03:35:44.931Z,0
2017-10-17T03:36:45.538Z,0
2017-10-17T03:37:46.143Z,0
2017-10-17T03:38:46.757Z,0
2017-10-17T03:39:47.364Z,0
2017-10-17T03:40:47.976Z,0
2017-10-17T03:41:48.579Z,0
2017-10-17T03:42:49.181Z,0
2017-10-17T03:43:49.792Z,0
2017-10-17T03:44:50.398Z,0
2017-10-17T03:45:51.008Z,0
2017-10-17T03:46:51.615Z,0
2017-10-17T03:47:52.227Z,0
2017-10-17T03:48:52.834Z,0
2017-10-17T03:49:53.444Z,0
2017-10-17T03:50:54.058Z,0
2017-10-17T03:51:54.661Z,0
2017-10-17T03:52:55.268Z,0
2017-10-17T03:53:55.869Z,0
2017-10-17T03:54:56.477Z,0
2017-10-17T03:55:57.087Z,0
2017-10-17T03:56:57.694Z,0
2017-10-17T03:57:58.294Z,0
2017-10-17T03:58:58.906Z,0
2017-10-17T03:59:59.510Z,0
2017-10-17T04:01:00.106Z,0
2017-10-17T04:02:00.707Z,0
2017-10-17T04:03:01.311Z,0
2017-10-17T04:04:01.912Z,0
2017-10-17T04:05:02.509Z,0
2017-10-17T04:06:03.115Z,0
2017-10-17T04:07:03.724Z,0
2017-10-17T04:08:04.350Z,0
2017-10-17T04:09:04.934Z,0
2017-10-17T04:10:05.544Z,0
2017-10-17T04:11:06.153Z,0
2017-10-17T04:12:06.761Z,0
2017-10-17T04:13:07.370Z,0
2017-10-17T04:14:07.983Z,0
2017-10-17T04:15:08.580Z,0
2017-10-17T04:16:09.185Z,0
2017-10-17T04:17:09.797Z,0
2017-10-17T04:18:10.402Z,0
2017-10-17T04:19:11.012Z,0
2017-10-17T04:20:11.610Z,0
2017-10-17T04:21:12.212Z,0
2017-10-17T04:22:12.811Z,0
2017-10-17T04:23:13.416Z,0
2017-10-17T04:24:14.010Z,0
2017-10-17T04:25:14.612Z,0
2017-10-17T04:26:15.220Z,0
2017-10-17T04:27:15.829Z,0
2017-10-17T04:28:16.426Z,0
2017-10-17T04:29:17.042Z,0
2017-10-17T04:30:17.647Z,0
2017-10-17T04:31:18.250Z,0
2017-10-17T04:32:18.859Z,0
2017-10-17T04:33:19.468Z,0
2017-10-17T04:34:20.080Z,0
2017-10-17T04:35:20.678Z,0
2017-10-17T04:36:21.286Z,0
2017-10-17T04:37:21.895Z,0
2017-10-17T04:38:22.499Z,0
2017-10-17T04:39:23.098Z,0
2017-10-17T04:40:23.710Z,0
2017-10-17T04:41:24.304Z,0
2017-10-17T04:42:24.914Z,0
2017-10-17T04:43:25.531Z,0
2017-10-17T04:44:26.129Z,0
2017-10-17T04:45:26.737Z,0
2017-10-17T04:46:27.346Z,0
2017-10-17T04:47:27.955Z,0
2017-10-17T04:48:28.561Z,0
2017-10-17T04:49:29.168Z,0
2017-10-17T04:50:29.777Z,0
2017-10-17T04:51:30.388Z,0
2017-10-17T04:52:31.002Z,0
2017-10-17T04:53:31.611Z,0
2017-10-17T04:54:32.221Z,0
2017-10-17T04:55:32.822Z,0
2017-10-17T04:56:33.430Z,0
2017-10-17T04:57:34.026Z,0
2017-10-17T04:58:34.637Z,0
2017-10-17T04:59:35.247Z,0
2017-10-17T05:00:35.858Z,0
2017-10-17T05:01:36.454Z,0
2017-10-17T05:02:37.062Z,0
2017-10-17T05:03:37.677Z,0
2017-10-17T05:04:38.278Z,0
2017-10-17T05:05:38.890Z,0
2017-10-17T05:06:39.494Z,0
2017-10-17T05:07:40.110Z,0
2017-10-17T05:08:40.712Z,0
2017-10-17T05:09:41.316Z,0
2017-10-17T05:10:41.916Z,0
2017-10-17T05:11:42.526Z,0
2017-10-17T05:12:43.145Z,0
2017-10-17T05:13:43.749Z,0
2017-10-17T05:14:44.355Z,0
2017-10-17T05:15:44.954Z,0
2017-10-17T05:16:45.551Z,0
2017-10-17T05:17:46.161Z,0
2017-10-17T05:18:46.759Z,0
2017-10-17T05:19:47.366Z,0
2017-10-17T05:20:47.978Z,0
2017-10-17T05:21:48.591Z,0
2017-10-17T05:22:49.188Z,0
2017-10-17T05:23:49.799Z,0
2017-10-17T05:24:50.407Z,0
2017-10-17T05:25:51.022Z,0
2017-10-17T05:26:51.634Z,0
2017-10-17T05:27:52.231Z,0
2017-10-17T05:28:52.840Z,4
2017-10-17T05:29:53.449Z,0
2017-10-17T05:30:54.060Z,0
2017-10-17T05:31:54.667Z,4
2017-10-17T05:32:55.278Z,0
2017-10-17T05:33:55.886Z,4
2017-10-17T05:34:56.490Z,4
2017-10-17T05:35:57.100Z,8
2017-10-17T05:36:57.700Z,8
2017-10-17T05:37:58.303Z,8
2017-10-17T05:38:58.915Z,8
2017-10-17T05:39:59.527Z,12
2017-10-17T05:41:00.138Z,12
2017-10-17T05:42:00.745Z,16
2017-10-17T05:43:01.340Z,20
2017-10-17T05:44:01.944Z,20
2017-10-17T05:45:02.538Z,24
2017-10-17T05:46:03.153Z,28
2017-10-17T05:47:03.752Z,32
2017-10-17T05:48:04.358Z,32
2017-10-17T05:49:04.969Z,44
2017-10-17T05:50:05.577Z,44
2017-10-17T05:51:06.187Z,56
2017-10-17T05:52:06.818Z,60
2017-10-17T05:53:07.392Z,72
2017-10-17T05:54:08.004Z,76
2017-10-17T05:55:08.603Z,88
2017-10-17T05:56:09.213Z,92
2017-10-17T05:57:09.825Z,104
2017-10-17T05:58:10.425Z,112
2017-10-17T05:59:11.038Z,132
2017-10-17T06:00:11.658Z,148
2017-10-17T06:01:12.292Z,160
2017-10-17T06:02:12.902Z,180
2017-10-17T06:03:13.505Z,208
2017-10-17T06:04:14.135Z,232
2017-10-17T06:05:14.747Z,264
2017-10-17T06:06:15.371Z,292
2017-10-17T06:07:15.986Z,304
2017-10-17T06:08:16.597Z,304
2017-10-17T06:09:17.212Z,312
2017-10-17T06:10:17.824Z,340
2017-10-17T06:11:18.434Z,372
2017-10-17T06:12:19.051Z,404
2017-10-17T06:13:19.667Z,448
2017-10-17T06:14:20.275Z,488
2017-10-17T06:15:20.893Z,532
2017-10-17T06:16:21.509Z,584
2017-10-17T06:17:22.121Z,628
2017-10-17T06:18:22.965Z,652
2017-10-17T06:19:23.482Z,676
2017-10-17T06:20:24.102Z,720
2017-10-17T06:21:24.708Z,776
2017-10-17T06:22:25.315Z,816
2017-10-17T06:23:25.931Z,860
2017-10-17T06:24:26.547Z,912
2017-10-17T06:25:27.159Z,972
2017-10-17T06:26:27.778Z,1048
2017-10-17T06:27:29.378Z,1140
2017-10-17T06:28:29.988Z,1224
2017-10-17T06:29:30.598Z,1308
2017-10-17T06:30:31.214Z,1388
2017-10-17T06:31:31.823Z,1444
2017-10-17T06:32:32.433Z,1484
2017-10-17T06:33:33.075Z,1540
2017-10-17T06:34:33.654Z,1584
2017-10-17T06:35:34.271Z,1608
2017-10-17T06:36:34.889Z,1620
2017-10-17T06:37:35.496Z,1644
2017-10-17T06:38:36.100Z,1676
2017-10-17T06:39:36.716Z,1720
2017-10-17T06:40:37.329Z,1776
2017-10-17T06:41:37.931Z,1836
2017-10-17T06:42:38.550Z,1940
2017-10-17T06:43:39.213Z,2052
2017-10-17T06:44:39.823Z,2160
2017-10-17T06:45:40.427Z,2224
2017-10-17T06:46:41.043Z,2232
2017-10-17T06:47:41.652Z,2228
2017-10-17T06:48:42.268Z,2204
2017-10-17T06:49:42.883Z,2192
2017-10-17T06:50:43.497Z,2224
2017-10-17T06:51:44.109Z,2288
2017-10-17T06:52:44.716Z,2332
2017-10-17T06:53:45.329Z,2368
2017-10-17T06:54:45.948Z,2448
2017-10-17T06:55:46.550Z,2544
2017-10-17T06:56:47.155Z,2600
2017-10-17T06:57:47.772Z,2620
2017-10-17T06:58:48.382Z,2672
2017-10-17T06:59:48.993Z,2740
2017-10-17T07:00:49.613Z,2748
2017-10-17T07:01:50.220Z,2688
2017-10-17T07:02:50.836Z,2640
2017-10-17T07:03:51.449Z,2644
2017-10-17T07:04:52.064Z,2708
2017-10-17T07:05:52.680Z,2740
2017-10-17T07:06:53.292Z,2684
2017-10-17T07:07:53.897Z,2584
2017-10-17T07:08:54.513Z,2576
2017-10-17T07:09:55.115Z,2724
2017-10-17T07:10:55.722Z,2928
2017-10-17T07:11:56.338Z,3032
2017-10-17T07:12:56.943Z,3016
2017-10-17T07:13:57.553Z,2924
2017-10-17T07:14:58.167Z,2916
2017-10-17T07:15:58.778Z,2968
2017-10-17T07:16:59.384Z,3044
2017-10-17T07:17:59.986Z,3144
2017-10-17T07:19:00.602Z,3216
2017-10-17T07:20:01.242Z,3240
2017-10-17T07:21:01.822Z,3300
2017-10-17T07:22:02.439Z,3412
2017-10-17T07:23:03.044Z,3528
2017-10-17T07:24:03.661Z,3588
2017-10-17T07:25:04.275Z,3692
2017-10-17T07:26:04.877Z,3908
2017-10-17T07:27:05.490Z,4108
2017-10-17T07:28:06.085Z,4180
2017-10-17T07:29:06.706Z,4276
2017-10-17T07:30:07.325Z,4496
2017-10-17T07:31:07.943Z,4780
2017-10-17T07:32:08.560Z,5012
2017-10-17T07:33:09.168Z,5144
2017-10-17T07:34:09.769Z,5316
2017-10-17T07:35:10.386Z,5532
2017-10-17T07:36:10.994Z,5576
2017-10-17T07:37:11.597Z,5508
2017-10-17T07:38:12.215Z,5520
2017-10-17T07:39:12.833Z,5636
2017-10-17T07:40:13.434Z,5956
2017-10-17T07:41:14.050Z,6376
2017-10-17T07:42:14.655Z,6508
2017-10-17T07:43:15.288Z,6308
2017-10-17T07:44:15.908Z,6088
2017-10-17T07:45:16.528Z,5972
2017-10-17T07:46:17.146Z,6012
2017-10-17T07:47:17.762Z,6104
2017-10-17T07:48:18.382Z,6076
2017-10-17T07:49:18.986Z,5960
2017-10-17T07:50:19.610Z,6000
2017-10-17T07:51:20.229Z,6140
2017-10-17T07:52:20.845Z,6048
2017-10-17T07:53:21.467Z,5672
2017-10-17T07:54:22.082Z,5344
2017-10-17T07:55:22.698Z,5300
2017-10-17T07:56:23.313Z,5424
2017-10-17T07:57:23.931Z,5524
2017-10-17T07:58:24.540Z,5680
2017-10-17T07:59:25.167Z,5916
2017-10-17T08:00:25.772Z,6196
2017-10-17T08:01:26.384Z,6472
2017-10-17T08:02:27.006Z,6700
2017-10-17T08:03:27.619Z,6924
2017-10-17T08:04:28.223Z,7144
2017-10-17T08:05:28.840Z,7228
2017-10-17T08:06:29.450Z,7080
2017-10-17T08:07:30.066Z,6968
2017-10-17T08:08:30.671Z,6940
2017-10-17T08:09:31.291Z,6956
2017-10-17T08:10:31.909Z,6996
2017-10-17T08:11:32.522Z,6980
2017-10-17T08:12:33.126Z,6924
2017-10-17T08:13:33.741Z,6988
2017-10-17T08:14:34.359Z,7340
2017-10-17T08:15:34.973Z,7928
2017-10-17T08:16:35.578Z,8592
2017-10-17T08:17:36.193Z,9080
2017-10-17T08:18:36.800Z,9284
2017-10-17T08:19:37.417Z,9316
2017-10-17T08:20:38.021Z,9324
2017-10-17T08:21:38.643Z,9536
2017-10-17T08:22:39.250Z,9672
2017-10-17T08:23:39.861Z,9620
2017-10-17T08:24:40.469Z,9356
2017-10-17T08:25:41.074Z,9228
2017-10-17T08:26:41.691Z,9516
2017-10-17T08:27:42.310Z,9860
2017-10-17T08:28:42.928Z,9980
2017-10-17T08:29:43.540Z,9652
2017-10-17T08:30:44.142Z,9240
2017-10-17T08:31:44.761Z,9244
2017-10-17T08:32:45.382Z,9560
2017-10-17T08:33:45.995Z,9808
2017-10-17T08:34:46.609Z,9768
2017-10-17T08:35:47.227Z,9748
2017-10-17T08:36:47.886Z,9636
2017-10-17T08:37:48.509Z,9556
2017-10-17T08:38:49.133Z,9820
2017-10-17T08:39:49.739Z,10068
2017-10-17T08:40:50.359Z,10184
2017-10-17T08:41:50.975Z,10088
2017-10-17T08:42:51.589Z,10024
2017-10-17T08:43:52.213Z,10248
2017-10-17T08:44:52.831Z,10516
2017-10-17T08:45:53.441Z,10748
2017-10-17T08:46:54.057Z,11152
2017-10-17T08:47:54.677Z,11556
2017-10-17T08:48:55.293Z,11792
2017-10-17T08:49:55.911Z,12132
2017-10-17T08:50:56.536Z,12672
2017-10-17T08:51:57.155Z,13372
2017-10-17T08:52:57.769Z,13972
2017-10-17T08:53:58.385Z,14384
2017-10-17T08:54:59.009Z,14740
2017-10-17T08:55:59.830Z,15064
2017-10-17T08:57:00.449Z,15232
2017-10-17T08:58:01.075Z,15360
2017-10-17T08:59:01.686Z,15764
2017-10-17T09:00:02.306Z,16088
2017-10-17T09:01:02.929Z,16340
2017-10-17T09:02:03.548Z,16596
2017-10-17T09:03:04.170Z,17044
2017-10-17T09:04:04.788Z,17576
2017-10-17T09:05:05.411Z,18072
2017-10-17T09:06:06.030Z,18560
2017-10-17T09:07:06.648Z,18624
2017-10-17T09:08:07.270Z,18592
2017-10-17T09:09:07.894Z,18592
2017-10-17T09:10:08.515Z,18560
2017-10-17T09:11:09.217Z,18156
2017-10-17T09:12:10.025Z,17868
2017-10-17T09:13:10.647Z,17708
2017-10-17T09:14:11.265Z,17884
2017-10-17T09:15:11.887Z,18248
2017-10-17T09:16:12.506Z,18624
2017-10-17T09:17:13.126Z,18880
2017-10-17T09:18:13.755Z,19488
2017-10-17T09:19:14.368Z,20000
2017-10-17T09:20:14.991Z,20320
2017-10-17T09:21:15.609Z,20800
2017-10-17T09:22:16.218Z,21056
2017-10-17T09:23:16.839Z,21472
2017-10-17T09:24:17.449Z,21760
2017-10-17T09:25:18.074Z,21952
2017-10-17T09:26:18.690Z,22016
2017-10-17T09:27:19.323Z,22112
2017-10-17T09:28:19.943Z,22176
2017-10-17T09:29:20.554Z,22304
2017-10-17T09:30:21.175Z,22240
2017-10-17T09:31:21.794Z,22368
2017-10-17T09:32:22.413Z,22560
2017-10-17T09:33:23.053Z,22560
2017-10-17T09:34:23.660Z,22560
2017-10-17T09:35:24.284Z,22432
2017-10-17T09:36:24.904Z,22496
2017-10-17T09:37:25.524Z,22528
2017-10-17T09:38:26.148Z,22624
2017-10-17T09:39:26.771Z,22848
2017-10-17T09:40:27.409Z,23072
2017-10-17T09:41:28.024Z,22976
2017-10-17T09:42:28.715Z,22912
2017-10-17T09:43:29.323Z,22848
2017-10-17T09:44:29.944Z,23072
2017-10-17T09:45:30.570Z,23552
2017-10-17T09:46:31.196Z,23776
2017-10-17T09:47:31.814Z,23808
2017-10-17T09:48:32.446Z,23744
2017-10-17T09:49:33.075Z,23840
2017-10-17T09:50:33.719Z,24160
2017-10-17T09:51:34.316Z,24448
2017-10-17T09:52:34.955Z,24416
2017-10-17T09:53:35.566Z,24352
2017-10-17T09:54:36.181Z,24288
2017-10-17T09:55:36.810Z,24768
2017-10-17T09:56:37.419Z,25088
2017-10-17T09:57:38.030Z,25216
2017-10-17T09:58:38.654Z,25120
2017-10-17T09:59:39.277Z,25216
2017-10-17T10:00:39.900Z,25184
2017-10-17T10:01:40.527Z,25568
2017-10-17T10:02:41.149Z,25760
2017-10-17T10:03:41.768Z,25696
2017-10-17T10:04:42.394Z,25440
2017-10-17T10:05:43.008Z,25632
2017-10-17T10:06:43.640Z,25952
2017-10-17T10:07:44.254Z,26208
2017-10-17T10:08:44.869Z,26272
2017-10-17T10:09:45.489Z,26304
2017-10-17T10:10:46.112Z,26240
2017-10-17T10:11:46.738Z,26336
2017-10-17T10:12:47.362Z,26624
2017-10-17T10:13:47.983Z,26720
2017-10-17T10:14:48.600Z,26912
2017-10-17T10:15:49.222Z,27104
2017-10-17T10:16:49.847Z,26816
2017-10-17T10:17:50.468Z,26656
2017-10-17T10:18:51.088Z,26784
2017-10-17T10:19:51.707Z,27456
2017-10-17T10:20:52.324Z,27936
2017-10-17T10:21:52.939Z,27840
2017-10-17T10:22:53.560Z,27648
2017-10-17T10:23:54.194Z,27680
2017-10-17T10:24:54.802Z,28096
2017-10-17T10:25:55.424Z,28352
2017-10-17T10:26:56.066Z,28320
2017-10-17T10:27:56.668Z,28224
2017-10-17T10:28:57.283Z,28448
2017-10-17T10:29:57.896Z,28672
2017-10-17T10:30:58.521Z,28576
2017-10-17T10:32:00.125Z,28576
2017-10-17T10:33:00.751Z,28832
2017-10-17T10:34:01.385Z,28960
2017-10-17T10:35:02.003Z,29440
2017-10-17T10:36:02.626Z,29568
2017-10-17T10:37:03.251Z,29952
2017-10-17T10:38:03.860Z,30080
2017-10-17T10:39:04.486Z,30688
2017-10-17T10:40:05.095Z,31328
2017-10-17T10:41:05.720Z,31744
2017-10-17T10:42:06.356Z,31904
2017-10-17T10:43:06.977Z,31744
2017-10-17T10:44:07.608Z,31488
2017-10-17T10:45:08.223Z,31488
2017-10-17T10:46:09.482Z,31808
2017-10-17T10:47:10.107Z,31776
2017-10-17T10:48:10.720Z,31456
2017-10-17T10:49:11.343Z,31424
2017-10-17T10:50:11.979Z,31136
2017-10-17T10:51:12.608Z,31296
2017-10-17T10:52:13.236Z,31360
2017-10-17T10:53:13.943Z,31968
2017-10-17T10:54:14.567Z,31776
2017-10-17T10:55:15.183Z,32352
2017-10-17T10:56:15.796Z,32608
2017-10-17T10:57:16.417Z,33120
2017-10-17T10:58:17.044Z,32544
2017-10-17T10:59:17.677Z,32640
2017-10-17T11:00:18.318Z,31648
2017-10-17T11:01:19.138Z,31584
2017-10-17T11:02:19.776Z,32288
2017-10-17T11:03:20.414Z,32160
2017-10-17T11:04:21.044Z,31872
2017-10-17T11:05:21.656Z,31680
2017-10-17T11:06:22.293Z,31072
2017-10-17T11:07:22.929Z,31200
2017-10-17T11:08:23.560Z,31584
2017-10-17T11:09:24.181Z,31712
2017-10-17T11:10:24.830Z,31680
2017-10-17T11:11:25.453Z,31648
2017-10-17T11:12:26.065Z,31744
2017-10-17T11:13:26.682Z,31776
2017-10-17T11:14:27.316Z,31872
2017-10-17T11:15:27.933Z,31072
2017-10-17T11:16:28.560Z,30880
2017-10-17T11:17:29.183Z,31200
2017-10-17T11:18:29.816Z,31456
2017-10-17T11:19:30.453Z,31200
2017-10-17T11:20:31.074Z,31104
2017-10-17T11:21:31.688Z,30976
2017-10-17T11:22:32.334Z,30624
2017-10-17T11:23:32.950Z,30784
2017-10-17T11:24:33.574Z,31424
2017-10-17T11:25:34.206Z,31232
2017-10-17T11:26:34.832Z,30592
2017-10-17T11:27:35.812Z,30560
2017-10-17T11:28:36.355Z,30752
2017-10-17T11:29:36.984Z,30432
2017-10-17T11:30:37.609Z,30400
2017-10-17T11:31:38.235Z,30816
2017-10-17T11:32:38.869Z,30784
2017-10-17T11:33:39.514Z,31232
2017-10-17T11:34:40.126Z,30912
2017-10-17T11:35:40.877Z,30688
2017-10-17T11:36:41.759Z,30976
2017-10-17T11:37:42.384Z,31232
2017-10-17T11:38:43.004Z,30752
2017-10-17T11:39:43.634Z,30208
2017-10-17T11:40:44.339Z,30016
2017-10-17T11:41:44.951Z,29824
2017-10-17T11:42:45.595Z,30048
2017-10-17T11:43:46.231Z,29536
2017-10-17T11:44:46.840Z,29664
2017-10-17T11:45:47.471Z,29856
2017-10-17T11:46:48.099Z,30208
2017-10-17T11:47:48.726Z,30496
2017-10-17T11:48:49.360Z,30848
2017-10-17T11:49:49.974Z,30688
2017-10-17T11:50:50.634Z,30880
2017-10-17T11:51:51.245Z,31168
2017-10-17T11:52:51.874Z,31488
2017-10-17T11:53:52.497Z,31552
2017-10-17T11:54:53.156Z,31456
2017-10-17T11:55:53.757Z,31456
2017-10-17T11:56:54.391Z,31360
2017-10-17T11:57:55.030Z,31104
2017-10-17T11:58:55.644Z,30848
2017-10-17T11:59:56.543Z,30752
2017-10-17T12:00:57.174Z,30560
2017-10-17T12:01:57.804Z,30272
2017-10-17T12:02:58.427Z,31168
2017-10-17T12:03:59.062Z,31232
2017-10-17T12:04:59.685Z,31040
2017-10-17T12:06:00.318Z,30848
2017-10-17T12:07:00.940Z,30496
2017-10-17T12:08:01.565Z,31392
2017-10-17T12:09:02.192Z,31232
2017-10-17T12:10:02.830Z,31232
2017-10-17T12:11:03.465Z,30656
2017-10-17T12:12:04.101Z,31168
2017-10-17T12:13:04.747Z,31520
2017-10-17T12:14:05.380Z,31328
2017-10-17T12:15:06.020Z,30688
2017-10-17T12:16:06.644Z,30112
2017-10-17T12:17:07.287Z,30400
2017-10-17T12:18:07.915Z,31840
2017-10-17T12:19:08.550Z,32064
2017-10-17T12:20:09.187Z,31488
2017-10-17T12:21:09.818Z,30304
2017-10-17T12:22:10.444Z,30240
2017-10-17T12:23:11.100Z,30848
2017-10-17T12:24:11.714Z,31552
2017-10-17T12:25:12.413Z,30848
2017-10-17T12:26:13.046Z,29792
2017-10-17T12:27:13.676Z,30080
2017-10-17T12:28:14.315Z,30304
2017-10-17T12:29:14.943Z,31232
2017-10-17T12:30:15.571Z,30848
2017-10-17T12:31:16.203Z,31072
2017-10-17T12:32:16.848Z,30784
2017-10-17T12:33:17.472Z,30560
2017-10-17T12:34:18.096Z,31424
2017-10-17T12:35:18.729Z,32064
2017-10-17T12:36:19.370Z,31488
2017-10-17T12:37:19.990Z,31200
2017-10-17T12:38:20.628Z,30912
2017-10-17T12:39:21.262Z,31104
2017-10-17T12:40:21.888Z,31456
2017-10-17T12:41:22.513Z,31872
2017-10-17T12:42:23.139Z,31680
2017-10-17T12:43:23.761Z,30688
2017-10-17T12:44:24.396Z,30144
2017-10-17T12:45:25.011Z,30368
2017-10-17T12:46:25.642Z,30688
2017-10-17T12:47:26.254Z,30112
2017-10-17T12:48:26.877Z,29504
2017-10-17T12:49:27.518Z,29376
2017-10-17T12:50:28.165Z,29408
2017-10-17T12:51:28.865Z,28768
2017-10-17T12:52:29.501Z,28192
2017-10-17T12:53:30.131Z,28096
2017-10-17T12:54:30.761Z,27968
2017-10-17T12:55:31.396Z,27680
2017-10-17T12:56:32.027Z,27904
2017-10-17T12:57:32.660Z,27872
2017-10-17T12:58:33.294Z,26624
2017-10-17T12:59:33.941Z,26176
2017-10-17T13:00:34.563Z,26016
2017-10-17T13:01:35.188Z,26496
2017-10-17T13:02:35.881Z,28096
2017-10-17T13:03:36.487Z,28224
2017-10-17T13:04:37.304Z,27456
2017-10-17T13:05:37.931Z,25856
2017-10-17T13:06:38.542Z,25056
2017-10-17T13:07:39.179Z,25632
2017-10-17T13:08:39.797Z,26304
2017-10-17T13:09:40.415Z,26304
2017-10-17T13:10:41.046Z,25632
2017-10-17T13:11:41.675Z,24736
2017-10-17T13:12:42.306Z,24352
2017-10-17T13:13:42.937Z,24672
2017-10-17T13:14:43.570Z,24608
2017-10-17T13:15:44.223Z,24896
2017-10-17T13:16:44.843Z,24768
2017-10-17T13:17:45.472Z,24736
2017-10-17T13:18:46.085Z,25120
2017-10-17T13:19:46.708Z,24896
2017-10-17T13:20:47.340Z,24512
2017-10-17T13:21:47.970Z,24384
2017-10-17T13:22:48.604Z,24096
2017-10-17T13:23:49.251Z,23328
2017-10-17T13:24:49.878Z,22496
2017-10-17T13:25:50.497Z,22112
2017-10-17T13:26:51.135Z,21952
2017-10-17T13:27:51.756Z,22464
2017-10-17T13:28:52.394Z,22720
2017-10-17T13:29:53.025Z,22432
2017-10-17T13:30:53.652Z,21856
2017-10-17T13:31:54.281Z,21408
2017-10-17T13:32:54.898Z,21376
2017-10-17T13:33:55.536Z,21984
2017-10-17T13:34:56.430Z,20608
2017-10-17T13:35:57.110Z,19004
2017-10-17T13:36:57.775Z,18748
2017-10-17T13:37:58.364Z,18600
2017-10-17T13:38:58.994Z,18500
2017-10-17T13:39:59.633Z,18948
2017-10-17T13:41:00.263Z,19316
2017-10-17T13:42:00.890Z,18864
2017-10-17T13:43:01.516Z,19520
2017-10-17T13:44:02.163Z,19808
2017-10-17T13:45:02.793Z,20512
2017-10-17T13:46:03.464Z,20512
2017-10-17T13:47:04.068Z,20096
2017-10-17T13:48:04.689Z,19296
2017-10-17T13:49:05.313Z,18264
2017-10-17T13:50:05.937Z,17560
2017-10-17T13:51:06.569Z,17456
2017-10-17T13:52:07.201Z,17352